Time;durP1;ratioP1;P1;durP2;ratioP2;P2;SDS_P1;SDS_P2;PMS_P1;PMS_P2;Temp;Humidity;BMP_temperature;BMP_pressure;BME280_temperature;BME280_humidity;BME280_pressure;Samples;Min_cycle;Max_cycle;Signal;HPM_P1;HPM_P2
2021/09/19 00:00:53;;;;;;;1.10;1.10;;;21.20;78.90;;;;;;4208205;28;20051;-59
2021/09/19 00:03:15;;;;;;;0.90;0.90;;;21.20;78.60;;;;;;4190750;28;20048;-60
2021/09/19 00:05:37;;;;;;;1.95;1.10;;;21.20;78.80;;;;;;4207343;28;20044;-60
2021/09/19 00:08:00;;;;;;;1.10;1.00;;;21.20;79.00;;;;;;4207469;28;20071;-59
2021/09/19 00:10:22;;;;;;;1.85;1.45;;;21.20;79.90;;;;;;4207136;28;20517;-60
2021/09/19 00:12:45;;;;;;;1.08;1.08;;;21.10;78.80;;;;;;4207177;28;20541;-60
2021/09/19 00:15:12;;;;;;;1.73;1.63;;;21.10;79.10;;;;;;4207278;28;20055;-60
2021/09/19 00:17:34;;;;;;;1.63;1.60;;;21.10;79.00;;;;;;4206791;28;20062;-62
2021/09/19 00:19:56;;;;;;;1.60;1.50;;;21.10;78.90;;;;;;4207030;28;20044;-59
2021/09/19 00:22:18;;;;;;;1.80;1.70;;;21.10;79.30;;;;;;4207028;28;20048;-59
2021/09/19 00:24:41;;;;;;;2.72;1.80;;;21.10;79.40;;;;;;4207244;28;20212;-60
2021/09/19 00:27:03;;;;;;;1.75;1.65;;;21.10;79.30;;;;;;4207612;28;20044;-60
2021/09/19 00:29:25;;;;;;;1.92;1.83;;;21.10;79.20;;;;;;4207102;28;20044;-60
2021/09/19 00:31:49;;;;;;;1.95;1.85;;;21.10;79.30;;;;;;4207187;28;20051;-60
2021/09/19 00:34:11;;;;;;;1.92;1.55;;;21.10;79.00;;;;;;4207039;28;20121;-60
2021/09/19 00:36:33;;;;;;;1.50;1.40;;;21.10;79.30;;;;;;4206159;28;20589;-60
2021/09/19 00:38:55;;;;;;;2.17;1.80;;;21.10;79.20;;;;;;4207044;28;20413;-61
2021/09/19 00:41:18;;;;;;;1.92;1.83;;;21.10;80.00;;;;;;4207282;28;20062;-60
2021/09/19 00:43:40;;;;;;;1.88;1.70;;;21.00;79.40;;;;;;4190542;28;20052;-59
2021/09/19 00:46:03;;;;;;;2.10;2.00;;;21.10;79.60;;;;;;4192892;28;20052;-59
2021/09/19 00:48:26;;;;;;;1.95;1.80;;;21.00;79.50;;;;;;4193644;28;20045;-59
2021/09/19 00:50:48;;;;;;;2.10;2.00;;;21.00;79.50;;;;;;4202762;28;20079;-59
2021/09/19 00:53:12;;;;;;;1.95;1.80;;;21.10;79.30;;;;;;4210563;28;20502;-59
2021/09/19 00:55:34;;;;;;;2.58;2.20;;;21.10;79.70;;;;;;4210610;28;20048;-60
2021/09/19 00:57:57;;;;;;;2.03;1.92;;;21.00;79.00;;;;;;4210488;28;20387;-60
2021/09/19 01:00:23;;;;;;;2.25;2.10;;;21.00;79.10;;;;;;4209989;28;20616;-60
2021/09/19 01:02:47;;;;;;;2.63;2.40;;;21.00;79.20;;;;;;4210499;28;20140;-60
2021/09/19 01:05:13;;;;;;;3.05;2.60;;;21.00;78.70;;;;;;4210236;28;20500;-60
2021/09/19 01:07:35;;;;;;;2.17;2.08;;;21.00;78.90;;;;;;4208954;28;20051;-60
2021/09/19 01:09:59;;;;;;;4.22;2.05;;;21.00;79.50;;;;;;4209177;28;20497;-59
2021/09/19 01:12:23;;;;;;;2.75;2.55;;;21.00;79.40;;;;;;4208673;28;20067;-60
2021/09/19 01:14:48;;;;;;;2.85;2.50;;;21.00;79.50;;;;;;4208870;28;20040;-60
2021/09/19 01:17:10;;;;;;;2.50;2.30;;;21.00;79.30;;;;;;4208547;28;20059;-60
2021/09/19 01:19:35;;;;;;;2.63;2.42;;;21.00;79.20;;;;;;4209127;28;20064;-59
2021/09/19 01:21:59;;;;;;;2.47;2.38;;;21.00;79.50;;;;;;4209868;28;20477;-60
2021/09/19 01:24:25;;;;;;;2.90;2.70;;;20.90;79.30;;;;;;4210273;28;20117;-60
2021/09/19 01:26:48;;;;;;;3.53;2.80;;;21.00;79.30;;;;;;4210497;28;20052;-59
2021/09/19 01:29:10;;;;;;;3.20;2.90;;;20.90;79.40;;;;;;4209886;28;20048;-60
2021/09/19 01:31:32;;;;;;;2.17;2.00;;;20.90;80.00;;;;;;4210014;28;20059;-60
2021/09/19 01:33:55;;;;;;;3.70;2.63;;;21.00;78.30;;;;;;4210009;28;20078;-60
2021/09/19 01:36:18;;;;;;;3.00;2.80;;;20.90;79.10;;;;;;4210232;28;20068;-60
2021/09/19 01:38:40;;;;;;;4.20;3.20;;;20.90;78.80;;;;;;4210164;28;20052;-59
2021/09/19 01:41:04;;;;;;;2.80;2.55;;;20.90;78.70;;;;;;4210237;28;20052;-60
2021/09/19 01:43:26;;;;;;;6.80;2.88;;;20.90;78.80;;;;;;4209676;28;20051;-59
2021/09/19 01:45:48;;;;;;;2.95;2.75;;;20.90;77.90;;;;;;4209937;28;20052;-60
2021/09/19 01:48:10;;;;;;;2.80;2.65;;;20.90;78.20;;;;;;4209559;28;20072;-60
2021/09/19 01:50:32;;;;;;;2.38;2.17;;;20.90;78.80;;;;;;4209832;28;20739;-59
2021/09/19 01:52:54;;;;;;;2.75;2.55;;;20.90;78.80;;;;;;4209843;28;20063;-59
2021/09/19 01:55:16;;;;;;;3.35;2.60;;;20.90;78.80;;;;;;4209088;28;20048;-59
2021/09/19 01:57:40;;;;;;;2.53;2.33;;;20.90;78.50;;;;;;4207987;28;20135;-58
2021/09/19 02:00:02;;;;;;;2.60;2.50;;;20.90;78.30;;;;;;4209834;28;20125;-59
2021/09/19 02:02:25;;;;;;;2.10;2.00;;;20.90;78.10;;;;;;4209835;28;20056;-60
2021/09/19 02:04:48;;;;;;;2.72;2.50;;;20.90;78.90;;;;;;4209950;28;20051;-60
2021/09/19 02:07:10;;;;;;;2.90;2.40;;;20.80;78.80;;;;;;4208912;28;20058;-60
2021/09/19 02:09:32;;;;;;;2.58;2.38;;;20.80;78.30;;;;;;4209261;28;20055;-60
2021/09/19 02:11:55;;;;;;;2.67;2.47;;;20.80;78.70;;;;;;4192918;28;20074;-60
2021/09/19 02:14:19;;;;;;;2.40;2.20;;;20.80;78.70;;;;;;4205805;28;20072;-60
2021/09/19 02:16:41;;;;;;;2.85;2.53;;;20.80;78.40;;;;;;4209521;28;20449;-60
2021/09/19 02:19:03;;;;;;;2.65;2.45;;;20.80;76.10;;;;;;4209590;28;20048;-59
2021/09/19 02:21:26;;;;;;;2.90;2.70;;;20.80;77.00;;;;;;4209591;28;20051;-59
2021/09/19 02:23:48;;;;;;;2.47;2.30;;;20.80;77.10;;;;;;4209708;28;20052;-60
2021/09/19 02:26:11;;;;;;;2.70;2.60;;;20.80;76.30;;;;;;4209414;28;20048;-59
2021/09/19 02:28:32;;;;;;;4.13;2.78;;;20.80;76.50;;;;;;4192922;28;20056;-59
2021/09/19 02:30:56;;;;;;;2.95;2.42;;;20.80;75.70;;;;;;4197152;28;20044;-60
2021/09/19 02:33:17;;;;;;;3.40;2.63;;;20.80;74.90;;;;;;4209542;28;20232;-59
2021/09/19 02:35:40;;;;;;;2.20;2.10;;;20.70;75.60;;;;;;4209216;28;20525;-60
2021/09/19 02:38:03;;;;;;;2.85;2.65;;;20.70;76.60;;;;;;4209044;28;20063;-60
2021/09/19 02:40:26;;;;;;;2.20;2.00;;;20.70;77.20;;;;;;4191860;28;20565;-60
2021/09/19 02:42:50;;;;;;;4.45;2.63;;;20.70;76.10;;;;;;4192366;28;20056;-60
2021/09/19 02:45:13;;;;;;;2.35;2.25;;;20.70;75.60;;;;;;4208720;28;20061;-59
2021/09/19 02:47:36;;;;;;;3.00;2.65;;;20.70;77.10;;;;;;4208125;28;20051;-60
2021/09/19 02:49:59;;;;;;;2.40;2.30;;;20.70;76.90;;;;;;4209141;28;20480;-60
2021/09/19 02:52:21;;;;;;;3.53;2.35;;;20.70;75.30;;;;;;4208142;28;20052;-60
2021/09/19 02:54:43;;;;;;;2.75;2.20;;;20.70;75.60;;;;;;4208295;28;20048;-59
2021/09/19 02:57:05;;;;;;;2.42;2.25;;;20.70;74.80;;;;;;4208112;28;20047;-60
2021/09/19 02:59:29;;;;;;;3.58;2.42;;;20.70;75.10;;;;;;4208589;28;20493;-60
2021/09/19 03:01:51;;;;;;;2.47;2.38;;;20.70;74.20;;;;;;4208391;28;20043;-60
2021/09/19 03:04:14;;;;;;;2.50;2.30;;;20.60;75.20;;;;;;4208560;28;20482;-59
2021/09/19 03:06:36;;;;;;;2.28;2.17;;;20.60;73.70;;;;;;4207732;28;20052;-59
2021/09/19 03:08:59;;;;;;;2.47;2.28;;;20.60;75.10;;;;;;4208287;28;20486;-60
2021/09/19 03:11:21;;;;;;;3.00;2.78;;;20.60;74.40;;;;;;4208251;28;20051;-59
2021/09/19 03:13:45;;;;;;;2.63;2.50;;;20.60;75.50;;;;;;4208218;28;20048;-59
2021/09/19 03:16:07;;;;;;;2.47;2.38;;;20.60;74.60;;;;;;4208006;28;20063;-59
2021/09/19 03:18:29;;;;;;;2.90;2.60;;;20.60;74.90;;;;;;4205741;28;20494;-60
2021/09/19 03:20:52;;;;;;;2.75;2.30;;;20.60;73.10;;;;;;4191969;28;20076;-58
2021/09/19 03:23:14;;;;;;;2.85;2.65;;;20.60;73.90;;;;;;4192064;28;20045;-59
2021/09/19 03:25:36;;;;;;;2.30;2.20;;;20.60;73.20;;;;;;4192542;28;20055;-60
2021/09/19 03:27:59;;;;;;;2.60;2.40;;;20.60;72.50;;;;;;4208457;28;20103;-60
2021/09/19 03:30:21;;;;;;;2.97;2.28;;;20.60;72.10;;;;;;4191036;28;20066;-62
2021/09/19 03:32:44;;;;;;;2.28;2.17;;;20.60;73.50;;;;;;4191024;28;20045;-59
2021/09/19 03:35:07;;;;;;;3.13;2.30;;;20.60;72.90;;;;;;4207937;28;20056;-59
2021/09/19 03:37:31;;;;;;;2.47;2.35;;;20.60;74.80;;;;;;4206965;28;20089;-60
2021/09/19 03:39:53;;;;;;;2.13;2.00;;;20.60;75.30;;;;;;4208133;28;20040;-59
2021/09/19 03:42:15;;;;;;;3.67;2.30;;;20.60;75.20;;;;;;4208194;28;20070;-60
2021/09/19 03:44:37;;;;;;;3.00;2.03;;;20.60;74.70;;;;;;4207577;28;20455;-59
2021/09/19 03:46:58;;;;;;;2.58;2.40;;;20.50;75.00;;;;;;4207580;28;20040;-59
2021/09/19 03:49:21;;;;;;;1.90;1.80;;;20.50;75.60;;;;;;4207538;28;20075;-59
2021/09/19 03:51:43;;;;;;;2.58;2.38;;;20.50;75.70;;;;;;4207615;28;20047;-59
2021/09/19 03:54:06;;;;;;;3.35;2.00;;;20.50;76.10;;;;;;4207628;28;20446;-60
2021/09/19 03:56:28;;;;;;;4.43;2.00;;;20.50;73.50;;;;;;4204543;28;20047;-60
2021/09/19 03:58:50;;;;;;;2.15;2.00;;;20.60;74.50;;;;;;4207990;28;20048;-60
2021/09/19 04:01:12;;;;;;;2.33;2.10;;;20.50;75.50;;;;;;4207430;28;20048;-60
2021/09/19 04:03:34;;;;;;;3.33;2.08;;;20.50;75.80;;;;;;4207680;28;20513;-60
2021/09/19 04:05:56;;;;;;;2.05;1.73;;;20.50;75.10;;;;;;4207185;28;20123;-59
2021/09/19 04:08:18;;;;;;;2.55;2.35;;;20.50;75.30;;;;;;4207154;28;20127;-60
2021/09/19 04:10:41;;;;;;;4.00;2.10;;;20.50;75.90;;;;;;4207700;28;20478;-60
2021/09/19 04:13:04;;;;;;;3.53;2.55;;;20.50;73.90;;;;;;4207220;28;20051;-59
2021/09/19 04:15:26;;;;;;;2.05;1.95;;;20.50;74.80;;;;;;4207272;28;20047;-59
2021/09/19 04:17:48;;;;;;;2.08;1.80;;;20.50;73.80;;;;;;4208192;28;20075;-58
2021/09/19 04:20:14;;;;;;;2.33;2.15;;;20.50;74.60;;;;;;4206582;28;20490;-59
2021/09/19 04:22:36;;;;;;;2.10;2.00;;;20.50;74.00;;;;;;4207513;28;20044;-60
2021/09/19 04:24:59;;;;;;;2.00;1.88;;;20.50;74.20;;;;;;4207095;28;20063;-59
2021/09/19 04:27:23;;;;;;;2.42;2.22;;;20.50;74.00;;;;;;4207352;28;20048;-59
2021/09/19 04:29:45;;;;;;;2.67;2.47;;;20.50;74.10;;;;;;4207237;28;20038;-59
2021/09/19 04:32:07;;;;;;;1.98;1.90;;;20.50;74.20;;;;;;4207250;28;20048;-59
2021/09/19 04:34:30;;;;;;;2.65;1.95;;;20.50;74.90;;;;;;4207465;28;20052;-59
2021/09/19 04:36:52;;;;;;;2.00;1.90;;;20.50;74.80;;;;;;4205224;28;20044;-60
2021/09/19 04:39:14;;;;;;;5.13;2.67;;;20.40;73.80;;;;;;4191060;28;20041;-59
2021/09/19 04:41:36;;;;;;;2.08;1.92;;;20.40;72.10;;;;;;4207369;28;20068;-60
2021/09/19 04:44:00;;;;;;;2.20;2.10;;;20.50;72.80;;;;;;4207065;28;20117;-59
2021/09/19 04:46:22;;;;;;;2.33;2.10;;;20.40;72.90;;;;;;4206656;28;20052;-60
2021/09/19 04:48:44;;;;;;;2.58;2.20;;;20.40;70.60;;;;;;4206808;28;20405;-59
2021/09/19 04:51:06;;;;;;;2.15;2.05;;;20.40;71.90;;;;;;4207586;28;20066;-59
2021/09/19 04:53:28;;;;;;;1.70;1.60;;;20.40;71.80;;;;;;4207712;28;20056;-60
2021/09/19 04:55:50;;;;;;;3.30;2.15;;;20.40;73.70;;;;;;4207319;28;20048;-60
2021/09/19 04:58:12;;;;;;;2.78;2.00;;;20.40;74.80;;;;;;4207130;28;20101;-60
2021/09/19 05:00:36;;;;;;;2.53;2.33;;;20.40;74.00;;;;;;4206839;28;20067;-61
2021/09/19 05:02:58;;;;;;;2.40;2.30;;;20.40;74.20;;;;;;4206908;28;20047;-60
2021/09/19 05:05:20;;;;;;;2.20;2.10;;;20.30;74.10;;;;;;4206799;28;20044;-60
2021/09/19 05:07:41;;;;;;;3.58;2.53;;;20.30;74.20;;;;;;4207084;28;20059;-60
2021/09/19 05:10:04;;;;;;;4.18;2.10;;;20.30;73.90;;;;;;4204772;28;20391;-60
2021/09/19 05:12:27;;;;;;;2.38;2.17;;;20.30;73.70;;;;;;4207020;28;20048;-60
2021/09/19 05:14:49;;;;;;;2.45;2.25;;;20.30;74.00;;;;;;4207125;28;20051;-60
2021/09/19 05:17:12;;;;;;;2.55;2.13;;;20.30;73.80;;;;;;4207106;28;20530;-60
2021/09/19 05:19:34;;;;;;;2.42;2.17;;;20.30;71.80;;;;;;4207122;28;20052;-60
2021/09/19 05:21:56;;;;;;;2.30;2.00;;;20.30;73.00;;;;;;4206950;28;20535;-59
2021/09/19 05:24:19;;;;;;;2.17;2.00;;;20.30;74.10;;;;;;4206664;28;20052;-60
2021/09/19 05:26:41;;;;;;;2.92;2.10;;;20.30;73.40;;;;;;4207099;28;20055;-60
2021/09/19 05:29:03;;;;;;;2.20;2.00;;;20.30;73.20;;;;;;4207276;28;20044;-60
2021/09/19 05:31:25;;;;;;;3.25;2.28;;;20.30;73.00;;;;;;4206844;28;20048;-60
2021/09/19 05:33:48;;;;;;;2.58;2.13;;;20.30;73.70;;;;;;4209389;28;20047;-60
2021/09/19 05:36:10;;;;;;;2.30;2.10;;;20.30;74.40;;;;;;4209526;28;20055;-59
2021/09/19 05:38:32;;;;;;;3.47;2.08;;;20.30;74.00;;;;;;4210001;28;20788;-59
2021/09/19 05:40:54;;;;;;;2.50;2.30;;;20.30;74.40;;;;;;4209804;28;20044;-60
2021/09/19 05:43:16;;;;;;;2.20;2.10;;;20.30;73.70;;;;;;4209548;28;20055;-59
2021/09/19 05:45:39;;;;;;;7.18;2.53;;;20.30;75.50;;;;;;4209747;28;20040;-60
2021/09/19 05:48:01;;;;;;;3.17;2.10;;;20.30;74.40;;;;;;4209140;28;20052;-60
2021/09/19 05:50:26;;;;;;;5.05;2.67;;;20.30;75.00;;;;;;4203353;28;20091;-59
2021/09/19 05:52:48;;;;;;;2.60;2.35;;;20.30;75.00;;;;;;4209594;28;20046;-60
2021/09/19 05:55:10;;;;;;;2.78;2.47;;;20.30;75.00;;;;;;4209421;28;20452;-60
2021/09/19 05:57:32;;;;;;;2.80;2.60;;;20.30;73.10;;;;;;4209296;28;20093;-60
2021/09/19 05:59:55;;;;;;;3.83;2.97;;;20.30;72.60;;;;;;4210037;28;20044;-59
2021/09/19 06:02:17;;;;;;;2.78;2.38;;;20.30;73.80;;;;;;4209435;28;20395;-58
2021/09/19 06:04:39;;;;;;;3.30;3.00;;;20.30;74.60;;;;;;4200863;28;20064;-60
2021/09/19 06:07:02;;;;;;;2.35;2.15;;;20.30;73.70;;;;;;4209388;28;20048;-60
2021/09/19 06:09:24;;;;;;;3.13;2.47;;;20.30;73.80;;;;;;4208348;28;20136;-60
2021/09/19 06:11:46;;;;;;;3.33;2.30;;;20.30;74.30;;;;;;4192454;28;20055;-60
2021/09/19 06:14:08;;;;;;;2.85;2.58;;;20.30;74.60;;;;;;4192573;28;20566;-61
2021/09/19 06:16:31;;;;;;;2.50;2.30;;;20.30;74.90;;;;;;4192672;28;20546;-61
2021/09/19 06:18:53;;;;;;;4.35;2.40;;;20.30;73.30;;;;;;4192487;28;20056;-59
2021/09/19 06:21:15;;;;;;;3.13;2.53;;;20.20;73.00;;;;;;4201941;28;20040;-60
2021/09/19 06:23:39;;;;;;;2.85;2.30;;;20.20;72.40;;;;;;4209419;28;20487;-60
2021/09/19 06:26:01;;;;;;;4.22;2.67;;;20.20;74.70;;;;;;4209527;28;20055;-61
2021/09/19 06:28:23;;;;;;;2.60;2.40;;;20.20;74.40;;;;;;4209178;28;20069;-61
2021/09/19 06:30:45;;;;;;;4.70;2.63;;;20.20;73.40;;;;;;4208924;28;20052;-60
2021/09/19 06:33:07;;;;;;;2.97;2.70;;;20.20;74.30;;;;;;4208101;28;20155;-60
2021/09/19 06:35:29;;;;;;;3.58;2.70;;;20.20;72.50;;;;;;4208751;28;20043;-60
2021/09/19 06:37:52;;;;;;;2.80;2.65;;;20.20;72.20;;;;;;4208073;28;20052;-60
2021/09/19 06:40:15;;;;;;;2.42;2.30;;;20.20;73.20;;;;;;4208814;28;20039;-60
2021/09/19 06:42:40;;;;;;;2.85;2.65;;;20.20;72.10;;;;;;4208696;28;20051;-60
2021/09/19 06:45:02;;;;;;;4.15;2.30;;;20.20;68.90;;;;;;4199354;28;20052;-60
2021/09/19 06:47:24;;;;;;;3.05;2.85;;;20.10;67.80;;;;;;4208468;28;20055;-59
2021/09/19 06:49:47;;;;;;;2.58;2.42;;;20.10;70.20;;;;;;4208406;28;20044;-60
2021/09/19 06:52:09;;;;;;;3.15;2.70;;;20.10;67.50;;;;;;4208249;28;20052;-60
2021/09/19 06:54:31;;;;;;;3.45;3.15;;;20.10;67.90;;;;;;4208692;28;20055;-60
2021/09/19 06:56:55;;;;;;;6.32;2.90;;;20.10;68.80;;;;;;4207841;28;20804;-62
2021/09/19 06:59:17;;;;;;;3.08;2.85;;;20.10;69.60;;;;;;4208791;28;20845;-59
2021/09/19 07:01:40;;;;;;;2.70;2.42;;;20.10;69.00;;;;;;4208347;28;20402;-60
2021/09/19 07:04:02;;;;;;;3.45;3.15;;;20.10;67.40;;;;;;4207596;28;20071;-60
2021/09/19 07:06:24;;;;;;;3.03;2.80;;;20.10;67.20;;;;;;4208179;28;20040;-61
2021/09/19 07:08:46;;;;;;;3.08;2.78;;;20.10;66.40;;;;;;4207984;28;20076;-60
2021/09/19 07:11:08;;;;;;;2.83;2.63;;;20.00;68.10;;;;;;4208184;28;20048;-59
2021/09/19 07:13:32;;;;;;;3.22;2.75;;;20.10;68.10;;;;;;4208269;28;20051;-60
2021/09/19 07:15:54;;;;;;;3.78;3.10;;;20.10;68.60;;;;;;4208339;28;20052;-60
2021/09/19 07:18:16;;;;;;;3.50;2.75;;;20.10;67.80;;;;;;4207851;28;20036;-60
2021/09/19 07:20:39;;;;;;;3.67;3.17;;;20.00;68.30;;;;;;4208197;28;20048;-60
2021/09/19 07:23:01;;;;;;;3.75;2.97;;;20.10;69.60;;;;;;4202898;28;20080;-59
2021/09/19 07:25:23;;;;;;;3.85;3.17;;;20.00;67.40;;;;;;4207644;27;20044;-57
2021/09/19 07:27:45;;;;;;;3.10;2.90;;;20.10;67.90;;;;;;4201830;28;20048;-57
2021/09/19 07:30:13;;;;;;;3.17;2.97;;;20.00;68.50;;;;;;4208197;28;20695;-58
2021/09/19 07:32:36;;;;;;;3.00;2.80;;;20.00;68.40;;;;;;4207972;28;20060;-57
2021/09/19 07:34:58;;;;;;;3.53;3.22;;;20.10;68.30;;;;;;4191654;28;20048;-59
2021/09/19 07:37:21;;;;;;;3.85;3.08;;;20.10;68.00;;;;;;4191596;28;20040;-58
2021/09/19 07:39:43;;;;;;;3.22;3.03;;;20.10;68.40;;;;;;4196833;28;20040;-58
2021/09/19 07:42:06;;;;;;;3.03;2.45;;;20.10;67.90;;;;;;4208047;28;20135;-58
2021/09/19 07:44:29;;;;;;;3.33;3.10;;;20.10;68.30;;;;;;4207994;28;20055;-58
2021/09/19 07:46:53;;;;;;;3.35;3.05;;;20.10;68.20;;;;;;4208003;28;20479;-59
2021/09/19 07:49:16;;;;;;;4.15;3.10;;;20.10;68.50;;;;;;4208279;28;20432;-58
2021/09/19 07:51:39;;;;;;;3.20;3.00;;;20.10;69.60;;;;;;4207839;28;20044;-59
2021/09/19 07:54:02;;;;;;;3.25;2.95;;;20.10;70.00;;;;;;4208083;28;20054;-57
2021/09/19 07:56:24;;;;;;;3.83;3.53;;;20.10;68.90;;;;;;4207086;28;20047;-58
2021/09/19 07:58:46;;;;;;;3.20;3.00;;;20.00;70.00;;;;;;4206556;28;20536;-59
2021/09/19 08:01:08;;;;;;;2.95;2.75;;;20.10;69.00;;;;;;4206366;28;20055;-60
2021/09/19 08:03:31;;;;;;;3.97;3.67;;;20.10;68.40;;;;;;4207779;28;20410;-59
2021/09/19 08:05:53;;;;;;;3.17;2.63;;;20.10;68.00;;;;;;4207953;28;20044;-59
2021/09/19 08:08:16;;;;;;;3.65;3.35;;;20.10;68.40;;;;;;4207682;28;20048;-60
2021/09/19 08:10:38;;;;;;;3.22;3.03;;;20.10;67.90;;;;;;4207088;28;20048;-59
2021/09/19 08:13:03;;;;;;;3.47;3.15;;;20.10;69.00;;;;;;4198787;28;20052;-58
2021/09/19 08:15:26;;;;;;;3.22;3.03;;;20.10;68.40;;;;;;4207600;28;20097;-59
2021/09/19 08:17:48;;;;;;;3.00;2.80;;;20.10;68.90;;;;;;4192192;28;20418;-58
2021/09/19 08:20:15;;;;;;;5.88;3.10;;;20.10;70.20;;;;;;4199964;28;20468;-58
2021/09/19 08:22:38;;;;;;;4.63;3.00;;;20.20;70.50;;;;;;4207028;28;20521;-60
2021/09/19 08:25:03;;;;;;;3.20;3.00;;;20.20;69.20;;;;;;4206017;28;20437;-59
2021/09/19 08:27:26;;;;;;;3.88;3.30;;;20.30;69.10;;;;;;4206835;28;20165;-61
2021/09/19 08:29:49;;;;;;;3.58;3.05;;;20.30;70.00;;;;;;4207091;28;20064;-60
2021/09/19 08:32:12;;;;;;;4.93;4.15;;;20.40;69.50;;;;;;4207146;28;20094;-60
2021/09/19 08:34:36;;;;;;;3.50;3.05;;;20.40;69.50;;;;;;4190805;28;20490;-60
2021/09/19 08:36:59;;;;;;;4.03;3.30;;;20.40;69.40;;;;;;4204897;28;20044;-60
2021/09/19 08:39:40;;;;;;;3.55;3.25;;;20.50;69.00;;;;;;4207598;28;20043;-59
2021/09/19 08:42:21;;;;;;;3.60;3.33;;;20.50;68.60;;;;;;4207363;28;20051;-61
2021/09/19 08:45:03;;;;;;;;;;;20.60;68.20;;;;;;4207543;28;20249;-59
2021/09/19 08:47:44;;;;;;;3.70;3.42;;;20.60;68.50;;;;;;4190688;28;20021;-59
2021/09/19 08:50:25;;;;;;;4.60;3.35;;;20.60;68.70;;;;;;4190544;28;20055;-60
2021/09/19 08:53:07;;;;;;;6.57;3.60;;;20.60;68.90;;;;;;4190584;28;20052;-60
2021/09/19 08:55:48;;;;;;;3.50;3.30;;;20.60;69.40;;;;;;4173650;28;20415;-61
2021/09/19 08:58:29;;;;;;;3.85;3.22;;;20.70;70.20;;;;;;4204915;28;20101;-59
2021/09/19 09:01:10;;;;;;;;;;;20.70;69.70;;;;;;4206329;28;20413;-59
2021/09/19 09:03:51;;;;;;;3.40;3.05;;;20.70;68.20;;;;;;4205745;28;19931;-60
2021/09/19 09:06:38;;;;;;;3.25;2.97;;;20.70;68.30;;;;;;4208376;28;20047;-62
2021/09/19 09:09:21;;;;;;;4.65;3.28;;;20.80;67.70;;;;;;4195494;28;20062;-61
2021/09/19 09:12:05;;;;;;;3.67;3.38;;;20.80;67.60;;;;;;4210489;28;20129;-61
2021/09/19 09:14:28;;;;;;;3.75;3.33;;;20.90;67.70;;;;;;4210490;28;20081;-59
2021/09/19 09:16:50;;;;;;;3.50;3.20;;;20.90;68.50;;;;;;4210293;28;20073;-61
2021/09/19 09:19:12;;;;;;;3.25;2.95;;;20.90;68.90;;;;;;4209990;28;20071;-59
2021/09/19 09:21:35;;;;;;;3.88;3.50;;;20.90;70.10;;;;;;4210443;28;20055;-60
2021/09/19 09:23:58;;;;;;;3.35;3.15;;;21.00;68.80;;;;;;4209513;28;20383;-60
2021/09/19 09:26:24;;;;;;;4.03;3.70;;;21.00;68.00;;;;;;4204297;28;20130;-61
2021/09/19 09:28:55;;;;;;;4.93;3.17;;;21.10;67.00;;;;;;4209903;28;20079;-59
2021/09/19 09:31:22;;;;;;;;;;;21.10;67.10;;;;;;4200065;28;20391;-61
2021/09/19 09:33:55;;;;;;;3.75;3.45;;;21.10;68.10;;;;;;4192646;28;19924;-60
2021/09/19 09:36:17;;;;;;;3.85;2.88;;;21.10;67.90;;;;;;4209223;28;20131;-60
2021/09/19 09:38:39;;;;;;;3.15;2.92;;;21.20;66.90;;;;;;4210081;28;20047;-59
2021/09/19 09:41:03;;;;;;;3.00;2.80;;;21.20;66.60;;;;;;4210054;28;20072;-60
2021/09/19 09:43:26;;;;;;;3.08;2.88;;;21.20;67.10;;;;;;4209678;28;20122;-60
2021/09/19 09:45:49;;;;;;;3.30;2.97;;;21.20;67.80;;;;;;4209736;28;20050;-62
2021/09/19 09:48:26;;;;;;;3.97;2.92;;;21.20;67.50;;;;;;4209659;28;20079;-59
2021/09/19 09:50:48;;;;;;;3.35;2.83;;;21.30;67.50;;;;;;4209406;28;20066;-58
2021/09/19 09:53:12;;;;;;;3.05;2.80;;;21.30;67.30;;;;;;4209135;28;20054;-57
2021/09/19 09:55:34;;;;;;;3.90;2.90;;;21.30;67.30;;;;;;4209387;28;20047;-59
2021/09/19 09:58:06;;;;;;;3.47;3.17;;;21.30;66.60;;;;;;4209853;28;20538;-58
2021/09/19 10:00:30;;;;;;;;;;;21.30;66.90;;;;;;4210322;28;20044;-60
2021/09/19 10:02:53;;;;;;;2.72;2.63;;;21.40;66.10;;;;;;4209631;28;20366;-59
2021/09/19 10:05:16;;;;;;;4.18;2.72;;;21.40;67.30;;;;;;4209498;28;20054;-59
2021/09/19 10:07:40;;;;;;;3.22;2.70;;;21.40;67.60;;;;;;4209056;28;20071;-59
2021/09/19 10:10:03;;;;;;;3.60;3.30;;;21.40;66.50;;;;;;4208428;28;20172;-59
2021/09/19 10:12:25;;;;;;;3.15;2.92;;;21.40;65.60;;;;;;4192720;28;20052;-58
2021/09/19 10:14:49;;;;;;;3.10;2.90;;;21.40;66.10;;;;;;4192767;28;20053;-60
2021/09/19 10:17:13;;;;;;;3.42;2.80;;;21.40;65.70;;;;;;4192855;28;20466;-59
2021/09/19 10:19:35;;;;;;;3.28;3.08;;;21.50;67.00;;;;;;4192709;28;20144;-60
2021/09/19 10:22:00;;;;;;;3.20;3.00;;;21.50;67.40;;;;;;4199782;28;20488;-60
2021/09/19 10:24:23;;;;;;;2.92;2.65;;;21.50;67.10;;;;;;4209211;28;20052;-62
2021/09/19 10:26:53;;;;;;;3.28;2.78;;;21.50;65.70;;;;;;4209280;28;20052;-60
2021/09/19 10:29:19;;;;;;;4.13;2.65;;;21.50;65.90;;;;;;4209224;28;20048;-60
2021/09/19 10:31:43;;;;;;;3.88;3.17;;;21.60;65.80;;;;;;4208913;28;20490;-60
2021/09/19 10:34:09;;;;;;;2.95;2.75;;;21.60;64.50;;;;;;4208661;28;20055;-61
2021/09/19 10:36:35;;;;;;;3.67;3.38;;;21.60;64.20;;;;;;4191731;28;20094;-59
2021/09/19 10:39:14;;;;;;;3.05;2.80;;;21.60;64.80;;;;;;4209062;28;20421;-59
2021/09/19 10:41:37;;;;;;;2.72;2.53;;;21.60;63.40;;;;;;4208561;28;20120;-60
2021/09/19 10:44:04;;;;;;;2.85;2.65;;;21.60;63.90;;;;;;4193327;28;20753;-61
2021/09/19 10:46:40;;;;;;;3.50;3.03;;;21.60;64.60;;;;;;4192709;28;20048;-60
2021/09/19 10:49:13;;;;;;;3.50;3.20;;;21.60;64.40;;;;;;4208511;28;20044;-61
2021/09/19 10:51:55;;;;;;;10.30;3.05;;;21.60;65.40;;;;;;4208289;28;20052;-62
2021/09/19 10:54:44;;;;;;;2.28;2.17;;;21.60;65.30;;;;;;4208390;28;20047;-61
2021/09/19 10:57:14;;;;;;;3.60;3.05;;;21.60;65.10;;;;;;4208016;28;20414;-62
2021/09/19 11:00:10;;;;;;;2.45;2.35;;;21.70;64.70;;;;;;4208476;28;20051;-61
2021/09/19 11:02:32;;;;;;;2.65;2.45;;;21.70;65.10;;;;;;4208416;28;20135;-62
2021/09/19 11:05:21;;;;;;;2.60;2.50;;;21.70;64.60;;;;;;4208432;28;20486;-59
2021/09/19 11:07:43;;;;;;;2.38;2.28;;;21.70;64.10;;;;;;4208626;28;20048;-60
2021/09/19 11:10:08;;;;;;;2.75;2.55;;;21.70;64.40;;;;;;4208223;28;20055;-59
2021/09/19 11:12:42;;;;;;;2.35;2.22;;;21.70;63.50;;;;;;4208333;28;20051;-60
2021/09/19 11:15:07;;;;;;;3.42;3.00;;;21.80;63.40;;;;;;4208344;28;20059;-60
2021/09/19 11:17:33;;;;;;;2.88;2.67;;;21.80;63.70;;;;;;4207921;28;20052;-59
2021/09/19 11:20:32;;;;;;;4.70;3.15;;;21.80;63.50;;;;;;4207156;28;20048;-59
2021/09/19 11:23:17;;;;;;;3.00;2.80;;;21.90;62.70;;;;;;4206359;28;20125;-59
2021/09/19 11:25:41;;;;;;;2.40;2.30;;;21.90;63.00;;;;;;4208680;28;20094;-59
2021/09/19 11:28:04;;;;;;;2.90;2.55;;;21.90;62.30;;;;;;4191406;28;20044;-60
2021/09/19 11:30:28;;;;;;;2.95;2.75;;;21.90;62.70;;;;;;4205234;28;20048;-60
2021/09/19 11:32:50;;;;;;;2.22;2.10;;;21.90;62.30;;;;;;4205398;28;20134;-59
2021/09/19 11:35:13;;;;;;;2.47;2.25;;;21.90;63.10;;;;;;4195453;28;20044;-59
2021/09/19 11:37:36;;;;;;;2.50;2.40;;;21.90;62.60;;;;;;4207412;28;20513;-62
2021/09/19 11:39:58;;;;;;;2.50;2.40;;;21.90;62.80;;;;;;4208135;28;20158;-59
2021/09/19 11:42:28;;;;;;;2.92;2.72;;;21.90;62.30;;;;;;4206837;28;20121;-59
2021/09/19 11:44:51;;;;;;;2.20;2.10;;;21.90;61.80;;;;;;4207895;28;20962;-59
2021/09/19 11:47:15;;;;;;;2.40;2.30;;;21.90;62.60;;;;;;4207686;28;20051;-59
2021/09/19 11:49:40;;;;;;;2.35;2.15;;;21.90;62.80;;;;;;4200384;28;20134;-62
2021/09/19 11:52:03;;;;;;;3.25;2.20;;;21.90;62.90;;;;;;4207151;28;20043;-60
2021/09/19 11:54:25;;;;;;;2.22;2.13;;;21.90;64.00;;;;;;4207530;28;20486;-62
2021/09/19 11:56:49;;;;;;;3.38;2.20;;;21.90;62.80;;;;;;4205738;28;20770;-62
2021/09/19 11:59:15;;;;;;;2.47;2.38;;;21.90;63.20;;;;;;4207593;28;20109;-62
2021/09/19 12:01:41;;;;;;;2.42;2.30;;;21.90;63.80;;;;;;4207393;28;20040;-59
2021/09/19 12:04:04;;;;;;;2.30;2.20;;;21.90;64.10;;;;;;4207074;28;20044;-59
2021/09/19 12:06:29;;;;;;;2.17;2.08;;;21.90;64.00;;;;;;4207340;28;20040;-59
2021/09/19 12:08:51;;;;;;;2.72;2.20;;;21.90;63.30;;;;;;4206364;28;20128;-62
2021/09/19 12:11:16;;;;;;;1.90;1.80;;;21.90;61.80;;;;;;4207741;28;20139;-58
2021/09/19 12:13:40;;;;;;;2.47;2.00;;;21.80;61.80;;;;;;4206884;28;20040;-59
2021/09/19 12:16:07;;;;;;;1.75;1.65;;;21.90;62.80;;;;;;4207542;28;20097;-59
2021/09/19 12:18:31;;;;;;;2.05;1.95;;;21.80;60.70;;;;;;4207650;28;20413;-60
2021/09/19 12:21:01;;;;;;;1.90;1.80;;;21.80;60.40;;;;;;4207092;28;20117;-59
2021/09/19 12:23:23;;;;;;;2.03;1.92;;;21.80;59.90;;;;;;4207058;28;20135;-61
2021/09/19 12:25:47;;;;;;;2.58;1.73;;;21.80;59.80;;;;;;4207291;28;20052;-60
2021/09/19 12:28:09;;;;;;;1.73;1.63;;;21.80;59.70;;;;;;4206801;28;20052;-60
2021/09/19 12:30:31;;;;;;;4.78;2.05;;;21.90;58.00;;;;;;4207254;28;20062;-60
2021/09/19 12:32:56;;;;;;;1.92;1.83;;;21.90;59.10;;;;;;4207370;28;20040;-60